Tiempo atmosférico en la estación meteorológica de Abla, Almería (885 m.)



Fecha
DESCASC
Temp. máxima en grados centígrados (hora)
DESCASC
Temp. mínima en grados centígrados (hora)
DESCASC
Temp. media en grados centígrados
DESCASC
Racha de viento máxima en m/sg (hora)
DESCASC
Velocidad máxima media en intervalos de 10 minutos(hora)
DESCASC
Precipitaciones diarias en mm
DESCASC
Precipitaciones de 00:00 a 06:00 en mm
DESCASC
Precipitaciones de 06:00 a 12:00 en mm
DESCASC
Precipitaciones de 12:00 a 18:00 en mm
DESCASC
Precipitaciones de 18:00 a 24:00 en mm
DESCASC
20-09-2020 28.6 (14:50) 14.6 (07:20) 21.6 6.94 (12:30) 2.5 (12:10) 0 0 0 0 0
19-09-2020 27.9 (15:20) 13.7 (06:30) 20.8 6.94 (19:40) 2.5 (19:50) 0 0 0 0 0
18-09-2020 -- (--) -- (--) -- 13.89 (19:10) 5.83 (01:50) -- -- 3.1 3.5 0
17-09-2020 27.8 (15:20) 20.3 (00:00) 24 10.28 (22:20) 4.44 (16:50) 0 0 0 0 0
16-09-2020 29.6 (15:00) 16.1 (00:00) 22.9 12.22 (13:30) 6.11 (14:00) 0 0 0 0 0
15-09-2020 29 (16:00) 17.1 (00:00) 23.1 10.28 (17:30) 5.56 (15:10) 0 0 0 0 0
14-09-2020 28.5 (14:30) 17.8 (00:00) 23.1 11.39 (12:10) 5.83 (12:10) 0 0 0 0 0
13-09-2020 27 (15:30) 18.6 (00:00) 22.8 11.11 (11:30) 4.72 (11:20) 0 0 0 0 0
12-09-2020 29.3 (15:00) 16.8 (00:00) 23 10 (14:30) 5 (14:40) 0 0 0 0 0
11-09-2020 28.5 (14:20) 15.3 (00:00) 21.9 11.11 (15:40) 5.28 (15:20) 0 0 0 0 0
10-09-2020 30.6 (14:10) 15.5 (00:00) 23.1 9.72 (16:20) 5 (17:20) 0 0 0 0 0
09-09-2020 27.4 (14:40) 13.5 (00:00) 20.4 10 (18:10) 5 (18:20) 0 0 0 0 0
08-09-2020 24.1 (14:20) 16.7 (00:00) 20.4 9.72 (18:10) 5.28 (18:00) 0 0 0 0 0
07-09-2020 32.3 (12:20) 16.4 (03:10) 24.3 10.83 (17:40) 5 (17:20) 0 0 0 0 0
06-09-2020 27.5 (15:10) 15 (00:00) 21.3 9.17 (14:50) 4.72 (17:00) 0 0 0 0 0
05-09-2020 28.2 (15:20) 14.5 (00:00) 21.4 9.72 (17:50) 5 (18:30) 0 0 0 0 0
04-09-2020 28.6 (15:50) 14.2 (00:00) 21.4 14.17 (17:00) 5.28 (17:00) 0 0 0 0 0
03-09-2020 27.6 (15:20) 14.3 (00:00) 21 10 (14:50) 5 (11:50) 0 0 0 0 0
02-09-2020 26 (15:20) 15 (00:00) 20.5 10.83 (13:40) 5 (15:30) 0 0 0 0 0
01-09-2020 25.5 (14:30) 14.7 (00:00) 20.1 8.06 (15:30) 4.44 (17:00) 0 0 0 0 0
31-08-2020 26.3 (15:10) 14.2 (00:00) 20.2 9.72 (17:40) 4.72 (11:10) 0 0 0 0 0
30-08-2020 25.5 (15:10) 15.2 (00:00) 20.3 10 (18:40) 4.72 (18:40) 0 0 0 0 0
29-08-2020 32.9 (15:10) 20.2 (00:00) 26.6 8.61 (18:10) 3.61 (20:40) 0 0 0 0 0
28-08-2020 36.7 (15:50) 21.8 (00:00) 29.3 7.78 (17:40) 3.33 (17:50) 0 0 0 0 0
27-08-2020 -- (--) -- (--) -- -- (--) -- (--) 0 0 0 0 0
26-08-2020 34.4 (14:10) 20.1 (00:00) 27.3 9.17 (17:00) 5 (18:50) 0 0 0 0 0
25-08-2020 33 (13:40) 19.5 (00:00) 26.3 12.22 (14:50) 5.83 (18:00) 0 0 0 0 0
24-08-2020 30.7 (14:50) 20.8 (00:00) 25.8 10.28 (15:30) 5.28 (18:20) 0 0 0 0 0
23-08-2020 30.9 (15:50) 20.9 (00:00) 25.9 10.83 (17:00) 5.83 (17:30) 0 0 0 0 0
22-08-2020 37 (12:20) 22.6 (00:00) 29.8 10.83 (18:10) 5.28 (17:50) 0 0 0 0 0

Gráficas

Temp. máximas Temp. mínimas Temp. medias Precipitaciones Rachas de viento máximas Velocidades máximas media en intervalos de 10 minutos

Datos horarios

Fecha y hora oficial Temperatura (ºC) Velocidad del viento (km/h) Dirección del viento Racha (km/h) Dirección de racha Precipitación (mm) Presión (hPa) Tendencia (hPa) Humedad (%)
2020-09-20 23:00:00 20.6 4 Norte 17 Este 0 920.2 1.5 54
2020-09-20 22:00:00 21.3 6 Noroeste 13 Noroeste 0 919.8 1.8 50
2020-09-20 21:00:00 21 0 Calma 13 Este 0 919.1 1.3 64
2020-09-20 20:00:00 22.8 5 Nordeste 13 Nordeste 0 918.7 0.9 41
2020-09-20 19:00:00 25.5 3 Norte 14 Noroeste 0 918 -0.3 28
2020-09-20 18:00:00 26.5 3 Norte 14 Noroeste 0 917.8 -1.1 27
2020-09-20 17:00:00 27.1 6 Noroeste 17 Noroeste 0 917.8 -1.6 28
2020-09-20 16:00:00 27.7 7 Norte 21 Norte 0 918.3 -1.5 29
2020-09-20 15:00:00 27.7 7 Norte 21 Norte 0 918.9 -1.4 30
2020-09-20 14:00:00 27 7 Norte 21 Norte 0 919.4 -1.1 31
2020-09-20 13:00:00 25 7 Norte 25 Noroeste 0 919.8 -- 31
2020-09-20 12:00:00 24.1 8 Norte 19 Noroeste 0 920.3 -- 33
2020-09-20 11:00:00 22.2 5 Norte 15 Noroeste 0 920.5 -- 47
2020-09-20 10:00:00 19.7 5 Norte 14 Norte 0 920.5 -- 56
2020-09-20 09:00:00 16.5 6 Norte 15 Noroeste 0 920.2 -- 63
2020-09-20 08:00:00 15.6 4 Noroeste 15 Noroeste 0 919.9 -- 64
2020-09-20 07:00:00 15 5 Norte 16 Norte 0 919.9 -- 74
2020-09-20 06:00:00 15.1 8 Noroeste 15 Norte 0 920 -- 79
2020-09-20 05:00:00 16 4 Noroeste 14 Noroeste 0 920.1 -- 75
2020-09-20 04:00:00 16.7 5 Norte 17 Noroeste 0 920.4 -- 74
2020-09-20 03:00:00 17.3 6 Norte 19 Norte 0 920.8 -- 71
2020-09-20 02:00:00 17.7 6 Norte 17 Norte 0 920.7 -- 71
2020-09-20 01:00:00 17.8 5 Norte 20 Noroeste 0 920.8 -- 70
2020-09-20 00:00:00 18.6 6 Noroeste 16 Noroeste 0 920.8 -- 68
2020-09-19 23:00:00 19.3 7 Norte 17 Noroeste 0 920.6 -- 64
2020-09-19 22:00:00 20.1 8 Noroeste 19 Norte 0 919.9 -- 60
2020-09-19 21:00:00 21.1 5 Noroeste 20 Norte 0 919.1 -- 52
2020-09-19 20:00:00 22.8 9 Noroeste 25 Noroeste 0 918.3 -- 42
2020-09-19 19:00:00 24.7 6 Noroeste 17 Norte 0 917.7 -- 37
2020-09-19 18:00:00 25.6 6 Norte 19 Noroeste 0 917.3 -- 34
2020-09-19 17:00:00 26.4 4 Noroeste 17 Noroeste 0 917.4 -- 34
2020-09-19 16:00:00 25.3 4 Norte 18 Norte 0 917.7 -- 35
2020-09-19 15:00:00 26.7 5 Norte 19 Noroeste 0 918.3 -- 34
2020-09-19 14:00:00 25.4 5 Norte 16 Norte 0 918.9 -- 37
2020-09-19 13:00:00 24.3 4 Norte 17 Oeste 0 919.3 -- 39
2020-09-19 12:00:00 22.4 5 Noroeste 18 Noroeste 0 919.9 -- 41
2020-09-19 11:00:00 21.1 4 Norte 15 Norte 0 920.1 -- 44
2020-09-19 10:00:00 19.7 6 Noroeste 15 Noroeste 0 919.7 -- 51
2020-09-19 09:00:00 16.8 4 Noroeste 15 Noroeste 0 919.4 -- 57
2020-09-19 08:00:00 15.3 5 Noroeste 17 Este 0 918.9 -- 57
2020-09-19 07:00:00 15.4 4 Noroeste 14 Noroeste 0 918.4 -- 54
2020-09-19 06:00:00 14 8 Noroeste 13 Norte 0 918.3 -- 60
2020-09-19 05:00:00 16 3 Norte 12 Noroeste 0 917.9 -- 53
2020-09-19 04:00:00 15.1 7 Noroeste 12 Oeste 0 918.1 -- 62
2020-09-19 03:00:00 15.5 3 Noroeste 9 Oeste 0 918.3 -- 61
2020-09-19 02:00:00 17.3 2 Noroeste 13 Noroeste 0 918.3 -- 50
2020-09-19 01:00:00 17.8 3 Noroeste 9 Norte 0 918.7 -- 48
2020-09-19 00:00:00 18.5 0 Calma 15 Nordeste 0 918.8 -- 51
2020-09-18 23:00:00 19.5 0 Calma 12 Noroeste 0 918.7 -- 56
2020-09-18 22:00:00 19.3 3 Nordeste 16 Norte 0 918.4 -- 70
2020-09-18 21:00:00 20.1 10 Nordeste 27 Este 0 917.5 -- 67
2020-09-18 20:00:00 20.9 9 Nordeste 50 Nordeste 0 916.9 -- 61
2020-09-18 19:00:00 21.1 12 Nordeste 35 Este 0 916.5 -- 64
2020-09-18 18:00:00 21.7 16 Nordeste 41 Nordeste 0 916.6 -- 59
2020-09-18 17:00:00 21.8 13 Nordeste 33 Este 0 916.4 -- 60
2020-09-18 16:00:00 22.6 10 Norte 34 Nordeste 0 916.7 -- 55
2020-09-18 15:00:00 22 10 Nordeste 44 Norte 0 917 -- 56
2020-09-18 14:00:00 18.4 16 Nordeste 31 Nordeste 0.3 916.7 -- 84
2020-09-18 13:00:00 17.3 12 Nordeste 28 Este 3.2 917.2 -- 89
2020-09-18 12:00:00 16.8 10 Nordeste 36 Nordeste 1.3 919.5 -- 94
2020-09-18 11:00:00 17.2 15 Nordeste 38 Este 0.3 917.5 -- 94
2020-09-18 10:00:00 16.9 21 Nordeste 40 Nordeste 1.1 917.4 -- 94
2020-09-18 09:00:00 16.4 11 Este 26 Nordeste 0.2 917.6 -- 92
2020-09-18 08:00:00 16.1 6 Nordeste 24 Nordeste 0.1 917.5 -- 90
2020-09-18 07:00:00 15.7 8 Nordeste 23 Este 0.1 916.8 -- 94
2020-09-18 06:00:00 15.8 3 Nordeste -- -- -- 917.2 -- 91
2020-09-18 05:00:00 -- -- -- -- -- -- -- -- --
2020-09-18 04:00:00 -- 2 Noroeste -- -- -- -- -- --
2020-09-18 03:00:00 18.8 3 Nordeste 20 Nordeste 0 919.2 -- 64
2020-09-18 02:00:00 20.9 19 Noroeste 44 Noroeste 0 918.8 -- 49
2020-09-18 01:00:00 21.3 5 Norte 32 Noroeste 0 918.8 -- 51
2020-09-18 00:00:00 22.8 4 Noroeste 13 Norte 0 918.9 -- 49
2020-09-17 23:00:00 23.1 4 Noroeste 37 Norte 0 918.6 -- 48
2020-09-17 22:00:00 23.8 5 Norte 21 Noroeste 0 918.3 -- 48
2020-09-17 21:00:00 24 0 Calma 22 Noroeste 0 917.4 -- 52
2020-09-17 20:00:00 24.1 5 Nordeste 26 Este 0 917.3 -- 56
2020-09-17 19:00:00 24.5 12 Nordeste 28 Este 0 916.4 -- 55
2020-09-17 18:00:00 24.7 14 Nordeste 29 Este 0 916.4 -- 53
2020-09-17 17:00:00 27.1 8 Norte 32 Noroeste 0 916.9 -- 39
2020-09-17 16:00:00 27.5 2 Norte 19 Nordeste 0 917 -- 40
2020-09-17 15:00:00 26.3 6 Nordeste 14 Nordeste 0 917.8 -- 45
2020-09-17 14:00:00 25.3 7 Nordeste 18 Nordeste 0 918.2 -- 51
2020-09-17 13:00:00 24.4 9 Este -- -- -- 918.5 -- 58
2020-09-17 12:00:00 23.3 7 Nordeste 25 Nordeste 0 919.1 -- 64
2020-09-17 11:00:00 21.4 12 Nordeste 25 Este 0 919.4 -- 78
2020-09-17 10:00:00 20.8 13 Nordeste 25 Nordeste 0 919.1 -- 74
2020-09-17 09:00:00 22.7 5 Nordeste 17 Nordeste 0 918.8 -- 53
2020-09-17 08:00:00 22.8 5 Nordeste 14 Nordeste 0 918.5 -- 52
2020-09-17 07:00:00 22.8 3 Nordeste 13 Norte 0 918.5 -- 52
2020-09-17 06:00:00 22.9 3 Norte 24 Oeste 0 918.4 -- 53
2020-09-17 05:00:00 21.7 3 Norte 12 Noroeste 0 918.7 -- 60
2020-09-17 04:00:00 21 3 Nordeste 10 Norte 0 919 -- 65
2020-09-17 03:00:00 21.1 3 Noroeste 6 Norte 0 920.2 -- 66
2020-09-17 02:00:00 21.1 0 Calma 8 Norte 0 920.1 -- 64
2020-09-17 01:00:00 21.3 0 Calma 9 Nordeste 0 920.3 -- 64
2020-09-17 00:00:00 21.8 3 Nordeste 17 Este 0 920.3 -- 63
2020-09-16 23:00:00 21.8 11 Nordeste 22 Nordeste 0 920.2 -- 66
2020-09-16 22:00:00 22.2 7 Nordeste 27 Este 0 919.7 -- 62
2020-09-16 21:00:00 22.6 15 Este 30 Este 0 919 -- 70
2020-09-16 20:00:00 23.6 15 Este 31 Este 0 918.9 -- 62
2020-09-16 19:00:00 24.9 13 Nordeste 36 Nordeste 0 918.4 -- 50
2020-09-16 18:00:00 25.9 18 Nordeste 37 Nordeste 0 918.3 -- 37
2020-09-16 17:00:00 27.5 17 Nordeste 36 Nordeste 0 918.4 -- 33
2020-09-16 16:00:00 27.8 17 Nordeste 43 Este 0 918.6 -- 30
2020-09-16 15:00:00 29.2 18 Nordeste 39 Este 0 919.2 -- 30
2020-09-16 14:00:00 27.9 22 Este 44 Este 0 919.9 -- 29
2020-09-16 13:00:00 27.5 18 Nordeste 40 Este 0 920.5 -- 29
2020-09-16 12:00:00 26.4 18 Este 32 Este 0 921 -- 34
2020-09-16 11:00:00 24.3 11 Nordeste 20 Nordeste 0 921.4 -- 42
2020-09-16 10:00:00 23.5 0 Calma 4 Nordeste 0 921.8 -- 53
2020-09-16 09:00:00 19.9 0 Calma 12 Noroeste 0 921.8 -- 63
2020-09-16 08:00:00 16.2 10 Noroeste 13 Noroeste 0 921.6 -- 73
2020-09-16 07:00:00 18 2 Norte 9 Oeste 0 921.9 -- 61
2020-09-16 06:00:00 17.9 0 Calma 8 Oeste 0 921.7 -- 72
2020-09-16 05:00:00 17.3 0 Calma 9 Noroeste 0 921.6 -- 68
2020-09-16 04:00:00 18.4 0 Calma 6 Norte 0 922.1 -- 68
2020-09-16 03:00:00 18.2 0 Calma 5 Norte 0 922.5 -- 68
2020-09-16 02:00:00 18.9 3 Noroeste 8 Oeste 0 922.7 -- 71
2020-09-16 01:00:00 19.7 2 Noroeste 8 Norte 0 923.1 -- 57
2020-09-16 00:00:00 19.9 0 Calma 8 Noroeste 0 923 -- 64
2020-09-15 23:00:00 20.2 0 Calma 14 Nordeste 0 922.9 -- 71
2020-09-15 22:00:00 20.8 9 Nordeste 20 Este 0 922.6 -- 73
2020-09-15 21:00:00 22.2 8 Nordeste 27 Nordeste 0 921.9 -- 61
2020-09-15 20:00:00 24.9 12 Nordeste 30 Este 0 921.3 -- 35
2020-09-15 19:00:00 26.3 15 Nordeste 34 Este 0 921.2 -- 31
2020-09-15 18:00:00 27.5 15 Nordeste 37 Nordeste 0 921.1 -- 28
2020-09-15 17:00:00 27.7 15 Nordeste 33 Este 0 921.5 -- 29
2020-09-15 16:00:00 28.3 17 Nordeste 35 Este 0 921.9 -- 29
2020-09-15 15:00:00 27.9 19 Nordeste 35 Este 0 922.5 -- 29
2020-09-15 14:00:00 28 18 Este 34 Nordeste 0 923 -- 29
2020-09-15 13:00:00 27.3 17 Nordeste 35 Este 0 923.5 -- 31
2020-09-15 12:00:00 25.7 14 Nordeste 29 Este 0 923.8 -- 38
2020-09-15 11:00:00 24.3 12 Nordeste 25 Este 0 924 -- 47
2020-09-15 10:00:00 21.8 2 Norte 7 Noroeste 0 923.9 -- 57
2020-09-15 09:00:00 19.2 2 Norte 9 Norte 0 923.9 -- 69
2020-09-15 08:00:00 17.8 3 Noroeste 12 Noroeste 0 923.4 -- 71
2020-09-15 07:00:00 18.1 0 Calma 10 Noroeste 0 922.9 -- 75
2020-09-15 06:00:00 19.2 4 Nordeste 16 Este 0 922.7 -- 71
2020-09-15 05:00:00 18.7 2 Noroeste 14 Noroeste 0 923.2 -- 79
2020-09-15 04:00:00 18.4 5 Nordeste 14 Este 0 922.8 -- 88
2020-09-15 03:00:00 19.3 10 Nordeste 20 Nordeste 0 923.2 -- 82
2020-09-15 02:00:00 19.5 9 Nordeste 24 Este 0 924.1 -- 83
2020-09-15 01:00:00 20.7 9 Nordeste 26 Nordeste 0 924.1 -- 71
2020-09-15 00:00:00 20.4 17 Nordeste 32 Nordeste 0 923.8 -- 73
2020-09-14 23:00:00 20.9 3 Nordeste 24 Este 0 923.4 -- 63
2020-09-14 22:00:00 22.1 13 Nordeste 30 Nordeste 0 923.1 -- 59
2020-09-14 21:00:00 23.7 7 Nordeste 20 Nordeste 0 923.4 -- 50
2020-09-14 20:00:00 24 9 Nordeste 22 Nordeste 0 922.3 -- 47
2020-09-14 19:00:00 25.2 8 Este 26 Este 0 922.6 -- 44
2020-09-14 18:00:00 25.7 15 Este 32 Este 0 922.5 -- 40
2020-09-14 17:00:00 27 18 Este 33 Este 0 922.5 -- 36
2020-09-14 16:00:00 26.7 17 Este 35 Este 0 922.9 -- 37
2020-09-14 15:00:00 28.4 18 Nordeste 40 Este 0 923.5 -- 33
2020-09-14 14:00:00 26.2 19 Nordeste 36 Nordeste 0 923.8 -- 35
2020-09-14 13:00:00 25.9 20 Nordeste 41 Este 0 924 -- 37
2020-09-14 12:00:00 26.4 19 Este 40 Este 0 924.3 -- 36
2020-09-14 11:00:00 26.4 15 Este 33 Nordeste 0 924.3 -- 38
2020-09-14 10:00:00 22.8 8 Este 15 Este 0 924.2 -- 48
2020-09-14 09:00:00 20.4 5 Nordeste 12 Este 0 923.8 -- 56
2020-09-14 08:00:00 17.9 3 Nordeste 19 Este 0 923.5 -- 63
2020-09-14 07:00:00 18.3 10 Nordeste 24 Este 0 923.2 -- 62
2020-09-14 06:00:00 19 8 Nordeste 22 Nordeste 0 923.1 -- 61
2020-09-14 05:00:00 19.1 6 Nordeste 18 Este 0 923.8 -- 60
2020-09-14 04:00:00 18.9 7 Nordeste 17 Este 0 923.9 -- 61
2020-09-14 03:00:00 19.4 7 Este 22 Este 0 924.2 -- 60
2020-09-14 02:00:00 19.4 5 Este 17 Este 0 924.9 -- 60
2020-09-14 01:00:00 20.3 8 Nordeste 13 Este 0 925.1 -- 58
2020-09-14 00:00:00 20.8 8 Nordeste 16 Este 0 925.1 -- 57
2020-09-13 23:00:00 20.5 3 Norte 14 Este 0 925.2 -- 57
2020-09-13 22:00:00 22 8 Nordeste 30 Noroeste 0 924.9 -- 53
2020-09-13 21:00:00 22.8 10 Nordeste 26 Noroeste 0 923.8 -- 52
2020-09-13 20:00:00 23.8 13 Nordeste 30 Nordeste 0 923.4 -- 46
2020-09-13 19:00:00 25.3 14 Nordeste 31 Este 0 923.1 -- 42
2020-09-13 18:00:00 25.9 11 Norte 27 Nordeste 0 923 -- 40
2020-09-13 17:00:00 26.3 11 Nordeste 31 Nordeste 0 923.5 -- 38
2020-09-13 16:00:00 25.8 15 Nordeste 33 Nordeste 0 923.7 -- 39
2020-09-13 15:00:00 26.3 13 Nordeste 32 Este 0 923.9 -- 41
2020-09-13 14:00:00 25.6 13 Nordeste 35 Nordeste 0 924.2 -- 42
2020-09-13 13:00:00 25.5 12 Nordeste 34 Nordeste 0 924.2 -- 42
2020-09-13 12:00:00 24.4 13 Nordeste 40 Este 0 924.5 -- 44
2020-09-13 11:00:00 26 12 Este 25 Este 0 924 -- 41
2020-09-13 10:00:00 23.4 6 Nordeste 12 Este 0 923.5 -- 45
2020-09-13 09:00:00 20.2 0 Calma 3 Nordeste 0 923.1 -- 50
2020-09-13 08:00:00 19.5 2 Noroeste 7 Oeste 0 922.9 -- 51
2020-09-13 07:00:00 19.1 0 Calma 5 Noroeste 0 922.5 -- 54
2020-09-13 06:00:00 18.9 0 Calma 7 Norte 0 922.3 -- 54
2020-09-13 05:00:00 19.2 2 Noroeste 5 Nordeste 0 922.6 -- 54
2020-09-13 04:00:00 19.1 0 Calma 10 Nordeste 0 922.8 -- 55
2020-09-13 03:00:00 19.3 0 Calma 6 Nordeste 0 922.8 -- 56
2020-09-13 02:00:00 19 2 Nordeste 7 Este 0 923.2 -- 57
2020-09-13 01:00:00 19.2 2 Nordeste 8 Este 0 923.4 -- 55
2020-09-13 00:00:00 19.8 4 Nordeste 10 Este 0 923.1 -- 53
2020-09-12 23:00:00 20.6 5 Este 15 Este 0 922.7 -- 49
2020-09-12 22:00:00 21.6 2 Nordeste 14 Este 0 921.9 -- 45
2020-09-12 21:00:00 23.5 9 Nordeste 22 Nordeste 0 921.1 -- 39
2020-09-12 20:00:00 25.2 9 Nordeste 28 Este 0 920.6 -- 36
2020-09-12 19:00:00 26.5 12 Nordeste 28 Nordeste 0 920.2 -- 34
2020-09-12 18:00:00 27.4 13 Nordeste 28 Este 0 919.8 -- 33
2020-09-12 17:00:00 27.9 14 Este 33 Este 0 919.5 -- 33
2020-09-12 16:00:00 28.9 14 Nordeste 33 Este 0 920.1 -- 32
2020-09-12 15:00:00 28.3 14 Nordeste 36 Nordeste 0 920.3 -- 32
2020-09-12 14:00:00 27.8 17 Nordeste 34 Nordeste 0 920.5 -- 32
2020-09-12 13:00:00 28.1 15 Nordeste 31 Este 0 920.6 -- 33
2020-09-12 12:00:00 26.4 17 Nordeste 29 Este 0 920.6 -- 36
2020-09-12 11:00:00 25 16 Nordeste 30 Nordeste 0 920.3 -- 38
2020-09-12 10:00:00 23.3 10 Este 19 Este 0 919.9 -- 42
2020-09-12 09:00:00 20.5 3 Nordeste 6 Nordeste 0 919.7 -- 47
2020-09-12 08:00:00 17 0 Calma 3 Este 0 918.9 -- 53
2020-09-12 07:00:00 17.2 0 Calma 4 Este 0 918.6 -- 51
2020-09-12 06:00:00 18 0 Calma 3 Norte 0 918.3 -- 49
2020-09-12 05:00:00 17.8 0 Calma 6 Noroeste 0 918.2 -- 49
2020-09-12 04:00:00 18.3 0 Calma 5 Noroeste 0 918.3 -- 47
2020-09-12 03:00:00 19.3 3 Noroeste 8 Oeste 0 918.2 -- 45
2020-09-12 02:00:00 19.9 0 Calma 7 Oeste 0 918.2 -- 44
2020-09-12 01:00:00 20.5 3 Noroeste 8 Norte 0 918.4 -- 42
2020-09-12 00:00:00 20.7 0 Calma 4 Nordeste 0 918.5 -- 41
2020-09-11 23:00:00 21.5 3 Nordeste 13 Este 0 918.2 -- 39
2020-09-11 22:00:00 21.9 6 Nordeste 22 Este 0 917.8 -- 39
2020-09-11 21:00:00 23 10 Nordeste 33 Este 0 917.1 -- 37
2020-09-11 20:00:00 24.1 14 Nordeste 35 Este 0 916.3 -- 35
2020-09-11 19:00:00 25 17 Nordeste 36 Este 0 916.2 -- 35
2020-09-11 18:00:00 26 18 Este 36 Este 0 916.1 -- 35
2020-09-11 17:00:00 26.3 19 Nordeste 35 Este 0 916.3 -- 36
2020-09-11 16:00:00 27.2 17 Nordeste 40 Este 0 916.8 -- 35
2020-09-11 15:00:00 27.9 17 Este 37 Este 0 917.1 -- 35
2020-09-11 14:00:00 27.4 17 Nordeste 31 Este 0 917.4 -- 37
2020-09-11 13:00:00 26.1 12 Nordeste 29 Este 0 918.1 -- 39
2020-09-11 12:00:00 25.1 10 Nordeste 26 Nordeste 0 918.5 -- 44
2020-09-11 11:00:00 22.9 12 Nordeste 24 Nordeste 0 918.6 -- 49
2020-09-11 10:00:00 22.4 3 Nordeste 8 Este 0 918.4 -- 49
2020-09-11 09:00:00 18.4 0 Calma 7 Oeste 0 918.3 -- 60
2020-09-11 08:00:00 15.4 0 Calma 3 Norte 0 918.1 -- 69
2020-09-11 07:00:00 15.8 0 Calma 4 Oeste 0 917.7 -- 68
2020-09-11 06:00:00 16.1 0 Calma 4 Noroeste 0 917.7 -- 68
2020-09-11 05:00:00 16.3 0 Calma 7 Noroeste 0 918.1 -- 68
2020-09-11 04:00:00 17.7 5 Oeste 11 Oeste 0 918.3 -- 69
2020-09-11 03:00:00 17.9 2 Noroeste 8 Noroeste 0 918.4 -- 72
2020-09-11 02:00:00 18 0 Calma 6 Oeste 0 919.1 -- 73
2020-09-11 01:00:00 18.3 0 Calma 6 Norte 0 919.4 -- 75
2020-09-11 00:00:00 19 0 Calma 5 Este 0 919.3 -- 75
2020-09-10 23:00:00 19.1 3 Nordeste 9 Este 0 919.4 -- 75
2020-09-10 22:00:00 20.2 5 Nordeste 19 Este 0 919.2 -- 71
2020-09-10 21:00:00 21.7 8 Nordeste 22 Este 0 918.5 -- 60
2020-09-10 20:00:00 23.1 11 Nordeste 29 Nordeste 0 918.2 -- 53
2020-09-10 19:00:00 24.5 14 Nordeste 28 Nordeste 0 918.1 -- 43
2020-09-10 18:00:00 26 14 Nordeste 34 Nordeste 0 918.2 -- 38
2020-09-10 17:00:00 26.5 16 Nordeste 35 Este 0 918 -- 38
2020-09-10 16:00:00 28.2 12 Nordeste 32 Este 0 918.5 -- 32
2020-09-10 15:00:00 29.2 13 Nordeste 34 Nordeste 0 918.8 -- 29
2020-09-10 14:00:00 29.9 8 Nordeste 21 Nordeste 0 919.4 -- 27
2020-09-10 13:00:00 28.3 6 Nordeste 18 Nordeste 0 920.2 -- 28
2020-09-10 12:00:00 28.2 3 Nordeste 15 Noroeste 0 920.5 -- 29
2020-09-10 11:00:00 27.2 3 Norte 12 Noroeste 0 921.1 -- 35
2020-09-10 10:00:00 24.6 4 Noroeste 9 Noroeste 0 921.3 -- 42
2020-09-10 09:00:00 20.8 3 Norte 8 Oeste 0 921.2 -- 53
2020-09-10 08:00:00 17 4 Oeste 9 Noroeste 0 920.9 -- 67
2020-09-10 07:00:00 16.9 0 Calma 9 Noroeste 0 920.8 -- 63
2020-09-10 06:00:00 16.1 3 Noroeste 9 Noroeste 0 920.8 -- 71
2020-09-10 05:00:00 16.2 0 Calma 11 Oeste 0 921.2 -- 77
2020-09-10 04:00:00 16.5 2 Noroeste 9 Oeste 0 921.5 -- 76
2020-09-10 03:00:00 17.3 2 Noroeste 5 Nordeste 0 921.9 -- 70
2020-09-10 02:00:00 17.7 0 Calma 7 Noroeste 0 922.6 -- 72
2020-09-10 01:00:00 17.7 3 Nordeste 5 Nordeste 0 922.9 -- 76
2020-09-10 00:00:00 18.5 0 Calma 14 Nordeste 0 922.9 -- 74
2020-09-09 23:00:00 18.3 6 Nordeste 14 Nordeste 0 922.9 -- 74
2020-09-09 22:00:00 19.3 6 Nordeste 14 Nordeste 0 922.3 -- 67
2020-09-09 21:00:00 20.4 6 Nordeste 19 Este 0 921.2 -- 60
2020-09-09 20:00:00 21.7 12 Nordeste 26 Este 0 920.7 -- 53
2020-09-09 19:00:00 22.7 16 Este 36 Nordeste 0 920.3 -- 49
2020-09-09 18:00:00 23.8 15 Nordeste 34 Este 0 920.1 -- 43
2020-09-09 17:00:00 25 15 Este 30 Este 0 920.3 -- 39
2020-09-09 16:00:00 25.7 15 Nordeste 32 Este 0 920.5 -- 37
2020-09-09 15:00:00 26.5 13 Nordeste 28 Este 0 921 -- 35
2020-09-09 14:00:00 25.4 14 Nordeste 25 Nordeste 0 921.3 -- 37
2020-09-09 13:00:00 25.2 7 Nordeste 19 Nordeste 0 922.1 -- 39
2020-09-09 12:00:00 23.9 6 Nordeste 15 Este 0 922.6 -- 44
2020-09-09 11:00:00 22.1 3 Nordeste 10 Este 0 922.9 -- 48
2020-09-09 10:00:00 20 3 Nordeste 10 Nordeste 0 922.6 -- 57
2020-09-09 09:00:00 17.5 2 Noroeste 12 Noroeste 0 922.5 -- 69
2020-09-09 08:00:00 14.9 2 Noroeste 7 Norte 0 922.2 -- 78
2020-09-09 07:00:00 14.6 0 Calma 11 Oeste 0 921.9 -- 86
2020-09-09 06:00:00 14 5 Noroeste 14 Noroeste 0 922.1 -- 84
2020-09-09 05:00:00 14.7 2 Norte 8 Norte 0 922.5 -- 79
2020-09-09 04:00:00 15.1 3 Norte 6 Norte 0 922.8 -- 83
2020-09-09 03:00:00 15.6 3 Noroeste 7 Noroeste 0 922.6 -- 82
2020-09-09 02:00:00 15.8 2 Nordeste 7 Nordeste 0 922.9 -- 82
2020-09-09 01:00:00 16.2 3 Norte 7 Nordeste 0 923.2 -- 81
2020-09-09 00:00:00 16.7 5 Este 17 Este 0 923.7 -- 78
2020-09-08 23:00:00 17.3 11 Este 24 Este 0 923.5 -- 74
2020-09-08 22:00:00 18.1 13 Nordeste 24 Este 0 923 -- 69
2020-09-08 21:00:00 18.2 13 Nordeste 31 Este 0 922.3 -- 68
2020-09-08 20:00:00 19.5 12 Nordeste 32 Este 0 921.9 -- 62
2020-09-08 19:00:00 20.9 15 Nordeste 35 Este 0 921.8 -- 55
2020-09-08 18:00:00 21.6 19 Nordeste 33 Este 0 921.4 -- 50
2020-09-08 17:00:00 22.1 16 Nordeste 33 Este 0 921.4 -- 47
2020-09-08 16:00:00 22.9 17 Nordeste 35 Nordeste 0 921.5 -- 45
2020-09-08 15:00:00 21.7 15 Nordeste 35 Este 0 921.9 -- 46
2020-09-08 14:00:00 21.9 14 Nordeste 32 Nordeste 0 922.1 -- 48
2020-09-08 13:00:00 21.7 15 Este 30 Nordeste 0 922.6 -- 50
2020-09-08 12:00:00 20.2 12 Nordeste 31 Este 0 923 -- 53
2020-09-08 11:00:00 20.9 16 Nordeste 27 Este 0 922.7 -- 47
2020-09-08 10:00:00 18.2 12 Nordeste 26 Nordeste 0 922.5 -- 57
2020-09-08 09:00:00 17.8 13 Nordeste 27 Nordeste 0 922.5 -- 67
2020-09-08 08:00:00 17.4 11 Nordeste 31 Nordeste 0 922 -- 70
2020-09-08 07:00:00 17.4 10 Nordeste 28 Nordeste 0 921.4 -- 68
2020-09-08 06:00:00 17.9 12 Nordeste 27 Nordeste 0 920.9 -- 70
2020-09-08 05:00:00 17.6 12 Nordeste 28 Nordeste 0 921 -- 84
2020-09-08 04:00:00 18 10 Nordeste 32 Este 0 921.1 -- 87
2020-09-08 03:00:00 17.9 11 Nordeste 26 Nordeste 0 921.2 -- 92
2020-09-08 02:00:00 18.9 12 Nordeste 26 Nordeste 0 921.4 -- 87
2020-09-08 01:00:00 19.2 8 Este 23 Este 0 921.3 -- 80
2020-09-08 00:00:00 19.3 12 Este 27 Nordeste 0 921.3 -- 79
2020-09-07 23:00:00 19.6 13 Nordeste 29 Este 0 921.1 -- 81
2020-09-07 22:00:00 20.8 9 Nordeste 21 Nordeste 0 920.5 -- 80
2020-09-07 21:00:00 20.7 10 Nordeste 24 Nordeste 0 919.4 -- 82
2020-09-07 20:00:00 21.8 13 Nordeste 30 Este 0 918.2 -- 74
2020-09-07 19:00:00 23.4 14 Este 33 Este 0 917.7 -- 67
2020-09-07 18:00:00 24.8 17 Nordeste 39 Nordeste 0 916.9 -- 59
2020-09-07 17:00:00 26.6 16 Nordeste 36 Este 0 916.5 -- 45
2020-09-07 16:00:00 27.1 13 Nordeste 30 Este 0 916.8 -- 42
2020-09-07 15:00:00 28.5 13 Nordeste 31 Nordeste 0 917.3 -- 39
2020-09-07 14:00:00 28.1 13 Nordeste 32 Este 0 917.5 -- 38
2020-09-07 13:00:00 29.4 9 Nordeste 27 Nordeste 0 917.9 -- 37
2020-09-07 12:00:00 31.3 3 Norte 15 Nordeste 0 918.1 -- 27
2020-09-07 11:00:00 29.6 6 Norte 20 Norte 0 918.1 -- 31
2020-09-07 10:00:00 27.8 3 Norte 12 Noroeste 0 917.9 -- 38
2020-09-07 09:00:00 23.2 4 Norte 14 Noroeste 0 918 -- 44
2020-09-07 08:00:00 20.9 5 Noroeste 17 Norte 0 917.8 -- 50
2020-09-07 07:00:00 20.2 5 Noroeste 16 Noroeste 0 917.5 -- 50
2020-09-07 06:00:00 20.2 5 Noroeste 13 Noroeste 0 917.6 -- 47
2020-09-07 05:00:00 19.1 2 Noroeste 10 Noroeste 0 918.1 -- 52
2020-09-07 04:00:00 18.1 0 Calma 10 Oeste 0 918.4 -- 72
2020-09-07 03:00:00 17 0 Calma 4 Norte 0 918.6 -- 76
2020-09-07 02:00:00 17.6 0 Calma 7 Noroeste 0 919.2 -- 73
2020-09-07 01:00:00 18.2 0 Calma 6 Oeste 0 919.4 -- 75
2020-09-07 00:00:00 18.7 0 Calma 5 Este 0 919.3 -- 72
2020-09-06 23:00:00 19.3 3 Nordeste 13 Nordeste 0 919.2 -- 75
2020-09-06 22:00:00 20 9 Nordeste 20 Este 0 918.8 -- 70
2020-09-06 21:00:00 21.1 11 Nordeste 24 Este 0 918.2 -- 62
2020-09-06 20:00:00 23.1 13 Nordeste 28 Este 0 917.7 -- 53
2020-09-06 19:00:00 24.4 16 Este 28 Este 0 917.4 -- 49
2020-09-06 18:00:00 25.8 15 Nordeste 32 Este 0 917.5 -- 47
2020-09-06 17:00:00 26 17 Nordeste 32 Este 0 917.8 -- 46
2020-09-06 16:00:00 26.7 14 Nordeste 32 Este 0 918 -- 43
2020-09-06 15:00:00 26.8 15 Nordeste 33 Este 0 918.4 -- 43
2020-09-06 14:00:00 25.7 14 Nordeste 33 Este 0 918.9 -- 48
2020-09-06 13:00:00 25.3 11 Nordeste 27 Nordeste 0 919.4 -- 49
2020-09-06 12:00:00 23.6 9 Nordeste 20 Nordeste 0 919.6 -- 55
2020-09-06 11:00:00 22.3 7 Nordeste 16 Este 0 919.8 -- 66
2020-09-06 10:00:00 19.1 3 Norte 10 Este 0 919.4 -- 83
2020-09-06 09:00:00 17.2 0 Calma 4 Norte 0 919.5 -- 81
2020-09-06 08:00:00 16.1 0 Calma 5 Noroeste 0 919.1 -- 78
2020-09-06 07:00:00 15.5 0 Calma 4 Oeste 0 918.5 -- 82
2020-09-06 06:00:00 16.8 2 Oeste 6 Oeste 0 918.7 -- 86
2020-09-06 05:00:00 16.9 0 Calma 4 Noroeste 0 918.9 -- 79
2020-09-06 04:00:00 17.3 0 Calma 4 Oeste 0 919.3 -- 79
2020-09-06 03:00:00 17.8 0 Calma 5 Oeste 0 919.8 -- 85
2020-09-06 02:00:00 18.1 0 Calma 4 Norte 0 920.4 -- 83
2020-09-06 01:00:00 18.5 0 Calma 6 Norte 0 920.9 -- 77
2020-09-06 00:00:00 19 2 Norte 13 Este 0 921 -- 83
2020-09-05 23:00:00 19.4 5 Nordeste 20 Este 0 920.9 -- 81
2020-09-05 22:00:00 20.1 11 Nordeste 26 Este 0 920.6 -- 77
2020-09-05 21:00:00 21.5 12 Nordeste 29 Nordeste 0 919.8 -- 66
2020-09-05 20:00:00 23 14 Nordeste 30 Este 0 919.2 -- 57
2020-09-05 19:00:00 24.3 15 Nordeste 34 Nordeste 0 919.2 -- 52
2020-09-05 18:00:00 25.3 17 Nordeste 35 Nordeste 0 919.2 -- 49
2020-09-05 17:00:00 25.8 15 Nordeste 33 Este 0 919.3 -- 42
2020-09-05 16:00:00 27.1 16 Este 31 Este 0 919.8 -- 37
2020-09-05 15:00:00 28 15 Nordeste 31 Este 0 920.6 -- 33
2020-09-05 14:00:00 27.3 13 Nordeste 28 Nordeste 0 920.9 -- 32
2020-09-05 13:00:00 25.5 16 Nordeste 31 Este 0 921.7 -- 31
2020-09-05 12:00:00 25.1 14 Nordeste 26 Este 0 921.9 -- 29
2020-09-05 11:00:00 23.3 8 Nordeste 17 Nordeste 0 922.4 -- 54
2020-09-05 10:00:00 20.7 4 Nordeste 9 Nordeste 0 922.2 -- 56
2020-09-05 09:00:00 17.8 0 Calma 0 Calma 0 922.2 -- 68
2020-09-05 08:00:00 15.3 2 Noroeste 5 Oeste 0 922.1 -- 80
2020-09-05 07:00:00 15.3 0 Calma 5 Oeste 0 922 -- 87
2020-09-05 06:00:00 15.9 0 Calma 6 Oeste 0 922.1 -- 83
2020-09-05 05:00:00 16.1 3 Oeste 9 Oeste 0 922.5 -- 93
2020-09-05 04:00:00 16.9 2 Norte 8 Oeste 0 922.8 -- 87
2020-09-05 03:00:00 17.6 2 Norte 7 Noroeste 0 923.2 -- 90
2020-09-05 02:00:00 17.5 2 Noroeste 5 Norte 0 923.5 -- 86
2020-09-05 01:00:00 17.5 2 Norte 10 Nordeste 0 924.1 -- 89
2020-09-05 00:00:00 18.1 6 Nordeste 15 Nordeste 0 924.4 -- 89
2020-09-04 23:00:00 18.8 7 Nordeste 17 Nordeste 0 923.8 -- 83
2020-09-04 22:00:00 20.1 6 Nordeste 20 Este 0 923.6 -- 74
2020-09-04 21:00:00 21.1 11 Nordeste 28 Este 0 923 -- 68
2020-09-04 20:00:00 22.9 12 Nordeste 29 Nordeste 0 922.6 -- 60
2020-09-04 19:00:00 24.7 15 Nordeste 32 Este 0 922.5 -- 50
2020-09-04 18:00:00 25.8 14 Nordeste 35 Este 0 922.6 -- 45
2020-09-04 17:00:00 26.1 19 Este 51 Este 0 922.8 -- 42
2020-09-04 16:00:00 27.4 18 Nordeste 37 Este 0 923.1 -- 37
2020-09-04 15:00:00 27.8 14 Nordeste 33 Este 0 923.3 -- 35
2020-09-04 14:00:00 26.6 15 Nordeste 32 Este 0 924 -- 35
2020-09-04 13:00:00 25.7 14 Nordeste 31 Nordeste 0 924.5 -- 36
2020-09-04 12:00:00 23.7 14 Nordeste 29 Este 0 925.2 -- 40
2020-09-04 11:00:00 22.2 15 Nordeste 28 Nordeste 0 925.2 -- 41
2020-09-04 10:00:00 21.4 10 Nordeste 26 Este 0 924.8 -- 48
2020-09-04 09:00:00 17.9 8 Nordeste 14 Este 0 924.5 -- 65
2020-09-04 08:00:00 15.4 0 Calma 6 Nordeste 0 924.3 -- 74
2020-09-04 07:00:00 15.9 0 Calma 6 Norte 0 923.9 -- 74
2020-09-04 06:00:00 14.9 0 Calma 3 Norte 0 923.9 -- 71
2020-09-04 05:00:00 15.5 0 Calma 7 Noroeste 0 923.5 -- 68
2020-09-04 04:00:00 16.4 0 Calma 7 Noroeste 0 924 -- 68
2020-09-04 03:00:00 16.6 2 Noroeste 7 Norte 0 924.6 -- 64
2020-09-04 02:00:00 17.3 3 Nordeste 7 Norte 0 925 -- 71
2020-09-04 01:00:00 18 2 Norte 10 Norte 0 925.1 -- 63
2020-09-04 00:00:00 18.7 4 Norte 12 Este 0 925.4 -- 71
2020-09-03 23:00:00 19.8 6 Nordeste 17 Nordeste 0 925.3 -- 68
2020-09-03 22:00:00 20.5 6 Nordeste 19 Este 0 924.5 -- 64
2020-09-03 21:00:00 21.6 9 Este 21 Este 0 923.9 -- 57
2020-09-03 20:00:00 22.8 10 Nordeste 27 Nordeste 0 923.3 -- 49
2020-09-03 19:00:00 24.3 9 Nordeste 29 Nordeste 0 922.9 -- 42
2020-09-03 18:00:00 25.2 14 Nordeste 35 Nordeste 0 922.4 -- 41
2020-09-03 17:00:00 25.5 14 Nordeste 30 Este 0 922.5 -- 38
2020-09-03 16:00:00 26.8 13 Nordeste 32 Este 0 922.7 -- 36
2020-09-03 15:00:00 27.3 15 Nordeste 36 Nordeste 0 923 -- 33
2020-09-03 14:00:00 26.3 15 Este 32 Nordeste 0 923.2 -- 34
2020-09-03 13:00:00 25.5 15 Nordeste 32 Este 0 923.2 -- 36
2020-09-03 12:00:00 24.2 16 Nordeste 33 Nordeste 0 923.3 -- 35
2020-09-03 11:00:00 23.2 13 Nordeste 24 Este 0 922.9 -- 38
2020-09-03 10:00:00 21.3 4 Nordeste 12 Este 0 922.7 -- 54
2020-09-03 09:00:00 16.4 0 Calma 7 Nordeste 0 922.4 -- 72
2020-09-03 08:00:00 14.8 0 Calma 3 Nordeste 0 922 -- 85
2020-09-03 07:00:00 14.8 0 Calma 5 Norte 0 921.6 -- 82
2020-09-03 06:00:00 15.5 0 Calma 6 Noroeste 0 921.2 -- 79
2020-09-03 05:00:00 15.6 0 Calma 10 Oeste 0 921.3 -- 80
2020-09-03 04:00:00 17 3 Oeste 8 Oeste 0 921.3 -- 78
2020-09-03 03:00:00 17.4 3 Noroeste 9 Nordeste 0 921.4 -- 72
2020-09-03 02:00:00 17.6 3 Noroeste 8 Norte 0 921.6 -- 77
2020-09-03 01:00:00 18.1 4 Este 16 Nordeste 0 921.6 -- 81
2020-09-03 00:00:00 19 6 Nordeste 16 Este 0 921.4 -- 86
2020-09-02 23:00:00 19.1 8 Este 19 Este 0 920.9 -- 86
2020-09-02 22:00:00 19.6 10 Este 20 Este 0 920.1 -- 81
2020-09-02 21:00:00 20.7 12 Este 24 Este 0 919.3 -- 70
2020-09-02 20:00:00 22.1 12 Este 28 Nordeste 0 918.7 -- 55
2020-09-02 19:00:00 23.6 15 Este 35 Este 0 917.9 -- 46
2020-09-02 18:00:00 24.5 17 Nordeste 30 Nordeste 0 917.6 -- 44
2020-09-02 17:00:00 24.6 13 Este 28 Nordeste 0 917.5 -- 43
2020-09-02 16:00:00 23.3 12 Nordeste 35 Nordeste 0 917.9 -- 45
2020-09-02 15:00:00 25.3 14 Nordeste 35 Nordeste 0 917.7 -- 41
2020-09-02 14:00:00 24.8 16 Nordeste 39 Este 0 917.7 -- 44
2020-09-02 13:00:00 24.5 17 Nordeste 33 Nordeste 0 917.7 -- 42
2020-09-02 12:00:00 23.7 13 Nordeste 27 Este 0 917.7 -- 43
2020-09-02 11:00:00 23.4 8 Nordeste 15 Este 0 917.5 -- 42
2020-09-02 10:00:00 21.1 3 Nordeste 9 Noroeste 0 916.9 -- 54
2020-09-02 09:00:00 16.6 4 Oeste 6 Oeste 0 916.8 -- 71
2020-09-02 08:00:00 15.5 0 Calma 10 Noroeste 0 916.5 -- 80
2020-09-02 07:00:00 16.1 0 Calma 11 Norte 0 916 -- 80
2020-09-02 06:00:00 16.2 3 Noroeste 10 Noroeste 0 915.7 -- 72
2020-09-02 05:00:00 16.9 2 Norte 8 Nordeste 0 915.9 -- 72
2020-09-02 04:00:00 16.7 2 Norte 6 Noroeste 0 916 -- 83
2020-09-02 03:00:00 16.6 3 Norte 7 Noroeste 0 916 -- 87
2020-09-02 02:00:00 16.5 0 Calma 7 Nordeste 0 916 -- 90
2020-09-02 01:00:00 17.2 2 Este 8 Este 0 916.1 -- 88
2020-09-02 00:00:00 18.3 0 Calma 6 Oeste 0 915.8 -- 66
2020-09-01 23:00:00 18.9 2 Noroeste 6 Oeste 0 915.4 -- 75
2020-09-01 22:00:00 19.1 3 Nordeste 12 Nordeste 0 915.3 -- 76
2020-09-01 21:00:00 19.9 6 Nordeste 22 Nordeste 0 914.8 -- 69
2020-09-01 20:00:00 21.2 9 Nordeste 24 Este 0 914.4 -- 59
2020-09-01 19:00:00 22.7 10 Nordeste 22 Este 0 914.1 -- 50
2020-09-01 18:00:00 23.6 13 Este 28 Nordeste 0 914 -- 44
2020-09-01 17:00:00 22.9 16 Este 29 Este 0 914.1 -- 44
2020-09-01 16:00:00 23.6 10 Este 29 Este 0 915 -- 39
2020-09-01 15:00:00 24.7 6 Nordeste 20 Nordeste 0 915.5 -- 38
2020-09-01 14:00:00 23.7 7 Nordeste 17 Nordeste 0 916 -- 40
2020-09-01 13:00:00 25 5 Nordeste 15 Este 0 916.2 -- 39
2020-09-01 12:00:00 23.7 5 Nordeste 12 Nordeste 0 916.8 -- 39
2020-09-01 11:00:00 22.4 6 Nordeste 12 Este 0 916.6 -- 43
2020-09-01 10:00:00 22.2 2 Nordeste 12 Nordeste 0 916.5 -- 48
2020-09-01 09:00:00 18.5 0 Calma 8 Noroeste 0 916.7 -- 60
2020-09-01 08:00:00 15.9 3 Noroeste 8 Noroeste 0 917 -- 68
2020-09-01 07:00:00 15.1 0 Calma 9 Norte 0 916.6 -- 72
2020-09-01 06:00:00 17.4 0 Calma 16 Oeste 0 916.4 -- 62
2020-09-01 05:00:00 16.2 6 Noroeste 13 Noroeste 0 916.7 -- 74
2020-09-01 04:00:00 17 2 Noroeste 10 Noroeste 0 917.5 -- 74
2020-09-01 03:00:00 16.9 3 Norte 10 Oeste 0 918.6 -- 79
2020-09-01 02:00:00 16.8 2 Noroeste 8 Noroeste 0 919 -- 75
2020-09-01 01:00:00 17.5 0 Calma 17 Nordeste 0 919.3 -- 78
2020-09-01 00:00:00 18 8 Nordeste 19 Este 0 919.4 -- 76
2020-08-31 23:00:00 18.8 6 Nordeste 18 Este 0 919.3 -- 73
2020-08-31 22:00:00 19.7 5 Nordeste 19 Este 0 918.9 -- 65
2020-08-31 21:00:00 20.4 8 Nordeste 22 Este 0 918.2 -- 62
2020-08-31 20:00:00 21.2 12 Este 27 Este 0 917.9 -- 57
2020-08-31 19:00:00 22.5 14 Nordeste 33 Este 0 918 -- 53
2020-08-31 18:00:00 23.3 14 Nordeste 35 Este 0 918.1 -- 50
2020-08-31 17:00:00 23.9 15 Nordeste 33 Este 0 918.2 -- 46
2020-08-31 16:00:00 25.5 14 Nordeste 34 Este 0 918.5 -- 42
2020-08-31 15:00:00 25.7 17 Nordeste 33 Nordeste 0 919 -- 37
2020-08-31 14:00:00 25.5 14 Nordeste 33 Este 0 919.5 -- 39
2020-08-31 13:00:00 23.6 14 Nordeste 33 Nordeste 0 920.1 -- 45
2020-08-31 12:00:00 22.3 16 Nordeste 31 Este 0 920.3 -- 49
2020-08-31 11:00:00 21.9 14 Nordeste 27 Este 0 920.3 -- 49
2020-08-31 10:00:00 20.2 7 Nordeste 15 Nordeste 0 919.9 -- 59
2020-08-31 09:00:00 18 3 Nordeste 9 Norte 0 919.9 -- 57
2020-08-31 08:00:00 14.9 2 Norte 10 Noroeste 0 919.8 -- 66
2020-08-31 07:00:00 15.8 2 Norte 10 Norte 0 919.2 -- 59
2020-08-31 06:00:00 15.6 4 Noroeste 16 Norte 0 918.8 -- 61
2020-08-31 05:00:00 16.1 3 Noroeste 12 Norte 0 918.7 -- 64
2020-08-31 04:00:00 16.4 4 Norte 14 Noroeste 0 918.8 -- 65
2020-08-31 03:00:00 16.9 3 Noroeste 12 Norte 0 918.6 -- 68
2020-08-31 02:00:00 18.1 4 Noroeste 10 Norte 0 918.7 -- 67
2020-08-31 01:00:00 17.8 4 Nordeste 12 Norte 0 918.6 -- 81
2020-08-31 00:00:00 17.6 6 Nordeste 15 Nordeste 0 918.1 -- 80
2020-08-30 23:00:00 18.4 7 Este 18 Este 0 917.6 -- 81
2020-08-30 22:00:00 18.9 9 Este 23 Este 0 916.8 -- 77
2020-08-30 21:00:00 19.7 11 Este 27 Este 0 915.4 -- 71
2020-08-30 20:00:00 21 16 Nordeste 32 Este 0 914.3 -- 58
2020-08-30 19:00:00 22.8 13 Nordeste 36 Nordeste 0 913.5 -- 48
2020-08-30 18:00:00 23.9 13 Nordeste 29 Este 0 913 -- 42
2020-08-30 17:00:00 23.5 13 Nordeste 27 Este 0 913.3 -- 39
2020-08-30 16:00:00 24.5 10 Nordeste 25 Este 0 913.7 -- 36
2020-08-30 15:00:00 24.3 10 Nordeste 25 Este 0 914.2 -- 31
2020-08-30 14:00:00 24.7 11 Nordeste 25 Este 0 914.3 -- 31
2020-08-30 13:00:00 22.7 13 Nordeste 26 Este 0 914.4 -- 33
2020-08-30 12:00:00 22.2 9 Nordeste 19 Este 0 914.6 -- 31
2020-08-30 11:00:00 22 3 Nordeste 10 Noroeste 0 914.6 -- 33
2020-08-30 10:00:00 19.2 2 Nordeste 8 Nordeste 0 914.7 -- 35
2020-08-30 09:00:00 17.1 2 Norte 8 Noroeste 0 914.3 -- 37
2020-08-30 08:00:00 15.2 4 Noroeste 10 Noroeste 0 913.8 -- 37
2020-08-30 07:00:00 15.6 5 Oeste 13 Oeste 0 913.4 -- 37
2020-08-30 06:00:00 16.6 3 Noroeste 14 Noroeste 0 913.2 -- 36
2020-08-30 05:00:00 16.8 2 Norte 13 Noroeste 0 913 -- 35
2020-08-30 04:00:00 17.7 5 Norte 15 Noroeste 0 913 -- 35
2020-08-30 03:00:00 17.9 7 Noroeste 13 Noroeste 0 912.8 -- 35
2020-08-30 02:00:00 18.5 6 Norte 12 Noroeste 0 912.7 -- 34
2020-08-30 01:00:00 19.9 3 Norte 15 Norte 0 912.4 -- 32
2020-08-30 00:00:00 20.8 5 Norte 15 Norte 0 911.9 -- 32
2020-08-29 23:00:00 21.2 4 Norte 21 Noroeste 0 911.5 -- 31
2020-08-29 22:00:00 21.8 8 Noroeste 21 Noroeste 0 910.5 -- 31
2020-08-29 21:00:00 22.9 10 Noroeste 22 Noroeste 0 909.5 -- 29
2020-08-29 20:00:00 24.3 11 Noroeste 24 Noroeste 0 908.5 -- 25
2020-08-29 19:00:00 26.8 10 Noroeste 31 Norte 0 908.2 -- 26
2020-08-29 18:00:00 27.7 6 Norte 23 Noroeste 0 907.4 -- 26
2020-08-29 17:00:00 28.2 5 Norte 27 Norte 0 906.8 -- 23
2020-08-29 16:00:00 30.2 12 Norte 26 Norte 0 906.5 -- 18
2020-08-29 15:00:00 32.1 8 Norte 21 Norte 0 906 -- 17
2020-08-29 14:00:00 31.5 6 Norte 23 Norte 0 906.5 -- 20
2020-08-29 13:00:00 30.3 5 Norte 24 Norte 0 907.1 -- 22
2020-08-29 12:00:00 27.9 10 Norte 21 Norte 0 907.6 -- 21
2020-08-29 11:00:00 27.6 6 Norte 19 Noroeste 0 907.4 -- 22
2020-08-29 10:00:00 26.5 5 Norte 13 Noroeste 0 907.5 -- 26
2020-08-29 09:00:00 22 4 Norte 15 Nordeste 0 907.5 -- 37
2020-08-29 08:00:00 21.3 5 Norte 18 Noroeste 0 907.8 -- 43
2020-08-29 07:00:00 20.5 8 Noroeste 22 Norte 0 907.8 -- 50
2020-08-29 06:00:00 20.8 9 Noroeste 22 Norte 0 907.6 -- 53
2020-08-29 05:00:00 22 10 Noroeste 20 Noroeste 0 907.7 -- 51
2020-08-29 04:00:00 22.6 9 Noroeste 18 Noroeste 0 908 -- 52
2020-08-29 03:00:00 23.2 8 Noroeste 20 Norte 0 908.6 -- 49
2020-08-29 02:00:00 23.8 6 Noroeste 13 Norte 0 909 -- 43
2020-08-29 01:00:00 24.6 4 Noroeste 13 Noroeste 0 909.4 -- 41
2020-08-29 00:00:00 25.7 3 Noroeste 15 Oeste 0 909.9 -- 39
2020-08-28 23:00:00 26.6 4 Norte 17 Noroeste 0 910.4 -- 36
2020-08-28 22:00:00 27.6 7 Noroeste 21 Noroeste 0 910.5 -- 34
2020-08-28 21:00:00 28.7 12 Noroeste 20 Noroeste 0 909.8 -- 30
2020-08-28 20:00:00 30.2 8 Noroeste 22 Norte 0 909.5 -- 28
2020-08-28 19:00:00 32.3 9 Noroeste 22 Noroeste 0 909.4 -- 23
2020-08-28 18:00:00 33.9 9 Noroeste 28 Norte 0 909.2 -- 21
2020-08-28 17:00:00 34.6 11 Noroeste 25 Noroeste 0 909.4 -- 20
2020-08-28 16:00:00 35.9 6 Norte 22 Norte 0 909.8 -- 19
2020-08-28 15:00:00 35.2 5 Norte 23 Noroeste 0 910.7 -- 20
2020-08-28 14:00:00 33.9 6 Norte 20 Nordeste 0 911.3 -- 24
2020-08-28 13:00:00 33.7 4 Norte 16 Norte 0 912.3 -- 25
2020-08-28 12:00:00 32 5 Norte 19 Noroeste 0 913 -- 27
2020-08-28 11:00:00 31.8 7 Norte 18 Norte 0 913.5 -- 29
2020-08-28 10:00:00 29.9 4 Noroeste 12 Noroeste 0 913.8 -- 31
2020-08-28 09:00:00 26.6 4 Norte 14 Norte 0 914 -- 34
2020-08-28 08:00:00 23.6 4 Noroeste 17 Oeste 0 914.2 -- 36
2020-08-28 07:00:00 22.4 6 Noroeste 15 Noroeste 0 914 -- 35
2020-08-28 06:00:00 23.4 5 Noroeste 13 Noroeste 0 914.5 -- 36
2020-08-28 05:00:00 23.5 4 Noroeste 16 Noroeste 0 914.2 -- 35
2020-08-28 04:00:00 23.3 7 Noroeste 17 Noroeste 0 915.2 -- 35
2020-08-28 03:00:00 26.1 5 Noroeste 15 Noroeste 0 915.7 -- 32
2020-08-28 02:00:00 26.2 3 Noroeste 12 Noroeste 0 916.5 -- 35
2020-08-28 01:00:00 24.6 5 Noroeste 11 Noroeste 0 917 -- 42
2020-08-28 00:00:00 24.1 6 Noroeste 11 Noroeste 0 917.7 -- 41
2020-08-27 23:00:00 25.6 4 Noroeste 7 Oeste 0 918 -- 36
2020-08-27 22:00:00 26.9 4 Este 17 Este 0 917.9 -- 34
2020-08-27 21:00:00 28.5 6 Nordeste 17 Nordeste 0 917.4 -- 33
2020-08-27 20:00:00 30.2 7 Nordeste 25 Nordeste 0 917.8 -- 32
2020-08-27 19:00:00 30.6 11 Nordeste 29 Nordeste 0 917.9 -- 31
2020-08-27 18:00:00 32.1 16 Nordeste -- -- -- 917.8 -- 30
2020-08-27 17:00:00 32.3 19 Nordeste 38 Este 0 918.4 -- 29
2020-08-27 16:00:00 33.2 17 Nordeste 36 Este 0 918.9 -- 27
2020-08-27 15:00:00 33.3 16 Nordeste 40 Nordeste 0 919.5 -- 27
2020-08-27 14:00:00 33 15 Nordeste 34 Nordeste 0 920.1 -- 28
2020-08-27 13:00:00 33.4 15 Nordeste 29 Nordeste 0 920.7 -- 25
2020-08-27 12:00:00 34.3 9 Nordeste 17 Este 0 921.2 -- 25
2020-08-27 11:00:00 33.1 4 Nordeste 9 Nordeste 0 921.2 -- 26
2020-08-27 10:00:00 30.3 0 Calma 9 Oeste 0 921.2 -- 30
2020-08-27 09:00:00 27.1 6 Noroeste -- -- -- 921.3 -- 31
2020-08-27 08:00:00 -- -- -- -- -- -- -- -- --
2020-08-27 07:00:00 25.4 5 Norte 15 Noroeste 0 921.3 -- 32
2020-08-27 06:00:00 25.9 3 Noroeste 15 Oeste 0 921.2 -- 33
2020-08-27 05:00:00 25.1 8 Oeste 16 Oeste 0 921.3 -- 35
2020-08-27 04:00:00 25.2 7 Noroeste 17 Oeste 0 921.7 -- 35
2020-08-27 03:00:00 26.1 3 Noroeste 13 Norte 0 921.9 -- 36
2020-08-27 02:00:00 23.5 9 Noroeste 13 Noroeste 0 922.5 -- 42
2020-08-27 01:00:00 24.2 4 Oeste 7 Oeste 0 922.7 -- 42
2020-08-27 00:00:00 25.1 2 Noroeste 9 Noroeste 0 922.9 -- 42
2020-08-26 23:00:00 25.8 0 Calma 6 Este 0 922.8 -- 40
2020-08-26 22:00:00 26.7 3 Nordeste 19 Este 0 922.2 -- 40
2020-08-26 21:00:00 27.4 8 Nordeste 28 Este 0 921.2 -- 37
2020-08-26 20:00:00 29.3 13 Este 28 Este 0 920.5 -- 31
2020-08-26 19:00:00 31.2 17 Nordeste 32 Este 0 920.3 -- 30
2020-08-26 18:00:00 32 17 Nordeste 31 Este 0 920.3 -- 27
2020-08-26 17:00:00 32.2 15 Nordeste 33 Nordeste 0 920.3 -- 28
2020-08-26 16:00:00 33.6 15 Nordeste 28 Nordeste 0 920.6 -- 27
2020-08-26 15:00:00 33 13 Nordeste 31 Este 0 921 -- 26
2020-08-26 14:00:00 33.5 12 Nordeste 26 Norte 0 921.2 -- 26
2020-08-26 13:00:00 32.5 11 Nordeste 22 Este 0 921.6 -- 28
2020-08-26 12:00:00 31.6 10 Nordeste 19 Este 0 922 -- 28
2020-08-26 11:00:00 30.5 5 Nordeste 12 Nordeste 0 922 -- 30
2020-08-26 10:00:00 28.4 0 Calma 4 Nordeste 0 921.7 -- 36
2020-08-26 09:00:00 25.3 0 Calma 12 Noroeste 0 921.3 -- 42
2020-08-26 08:00:00 21.8 0 Calma 14 Noroeste 0 920.9 -- 46
2020-08-26 07:00:00 21.1 2 Noroeste 11 Noroeste 0 920.6 -- 45
2020-08-26 06:00:00 22.3 2 Noroeste 12 Noroeste 0 920.7 -- 45
2020-08-26 05:00:00 22.5 0 Calma 8 Oeste 0 920.7 -- 49
2020-08-26 04:00:00 22.2 0 Calma 7 Norte 0 920.8 -- 50
2020-08-26 03:00:00 22.7 2 Noroeste 9 Noroeste 0 921.2 -- 57
2020-08-26 02:00:00 23.3 0 Calma 8 Noroeste 0 921.3 -- 60
2020-08-26 01:00:00 24 0 Calma 8 Norte 0 921 -- 52
2020-08-26 00:00:00 24.7 0 Calma 8 Norte 0 921 -- 53
2020-08-25 23:00:00 24.4 3 Nordeste 13 Nordeste 0 920.9 -- 66
2020-08-25 22:00:00 25.3 6 Nordeste 19 Este 0 920.1 -- 53
2020-08-25 21:00:00 27.5 10 Este 38 Este 0 918.8 -- 41
2020-08-25 20:00:00 28.9 13 Nordeste 29 Nordeste 0 918.2 -- 36
2020-08-25 19:00:00 30.1 15 Nordeste 32 Este 0 918.2 -- 36
2020-08-25 18:00:00 30.1 21 Este 37 Este 0 918 -- 34
2020-08-25 17:00:00 30.8 19 Este 36 Este 0 918 -- 31
2020-08-25 16:00:00 31.2 17 Nordeste 39 Este 0 918.3 -- 31
2020-08-25 15:00:00 31 20 Nordeste 44 Nordeste 0 918.7 -- 32
2020-08-25 14:00:00 31.9 19 Nordeste 37 Nordeste 0 918.9 -- 28
2020-08-25 13:00:00 31.3 14 Nordeste 30 Este 0 919.1 -- 27
2020-08-25 12:00:00 29.5 11 Nordeste 29 Nordeste 0 919.4 -- 31
2020-08-25 11:00:00 27.5 9 Nordeste 19 Este 0 919.5 -- 39
2020-08-25 10:00:00 24.8 0 Calma 6 Norte 0 919.3 -- 60
2020-08-25 09:00:00 23.2 0 Calma 3 Nordeste 0 919.4 -- 68
2020-08-25 08:00:00 20.4 0 Calma 5 Noroeste 0 919 -- 75
2020-08-25 07:00:00 19.9 0 Calma 11 Noroeste 0 918.5 -- 71
2020-08-25 06:00:00 20.5 3 Noroeste 10 Norte 0 919.1 -- 79
2020-08-25 05:00:00 20.7 0 Calma 8 Noroeste 0 919 -- 77
2020-08-25 04:00:00 21.3 0 Calma 7 Noroeste 0 919.1 -- 78
2020-08-25 03:00:00 21.3 0 Calma 7 Nordeste 0 919.3 -- 88
2020-08-25 02:00:00 21.2 3 Nordeste 10 Nordeste 0 919.6 -- 91
2020-08-25 01:00:00 21.1 4 Nordeste 13 Este 0 919.7 -- 90
2020-08-25 00:00:00 21.5 7 Este 16 Este 0 919.5 -- 87
2020-08-24 23:00:00 22.5 8 Este 19 Este 0 919.4 -- 83
2020-08-24 22:00:00 23.3 10 Nordeste 26 Este 0 919 -- 76
2020-08-24 21:00:00 24.6 12 Este 29 Este 0 918 -- 68
2020-08-24 20:00:00 26 14 Nordeste 35 Este 0 917.5 -- 60
2020-08-24 19:00:00 27.6 16 Nordeste 37 Nordeste 0 917.3 -- 52
2020-08-24 18:00:00 28.7 17 Nordeste 32 Este 0 917.6 -- 49
2020-08-24 17:00:00 29.2 15 Nordeste 35 Este 0 917.7 -- 48
2020-08-24 16:00:00 28.8 14 Nordeste 37 Nordeste 0 918.2 -- 46
2020-08-24 15:00:00 30.1 14 Nordeste 36 Nordeste 0 918.5 -- 41
2020-08-24 14:00:00 29.3 17 Nordeste 37 Nordeste 0 918.7 -- 42
2020-08-24 13:00:00 28.6 16 Nordeste 34 Este 0 919.5 -- 48
2020-08-24 12:00:00 26.7 14 Nordeste 26 Nordeste 0 919.7 -- 52
2020-08-24 11:00:00 25.5 12 Este 23 Nordeste 0 919.9 -- 54
2020-08-24 10:00:00 24.4 7 Nordeste 16 Nordeste 0 919.8 -- 67
2020-08-24 09:00:00 21.8 6 Nordeste 12 Este 0 919.9 -- 86
2020-08-24 08:00:00 21.6 0 Calma -- -- -- 919.6 -- 77
2020-08-24 07:00:00 21.3 0 Calma 12 Norte 0 919.4 -- 77
2020-08-24 06:00:00 20.9 2 Norte 10 Norte 0 919.3 -- 77
2020-08-24 05:00:00 21.5 2 Norte 9 Norte 0 919.3 -- 73
2020-08-24 04:00:00 21.7 0 Calma 9 Norte 0 919.3 -- 74
2020-08-24 03:00:00 21.4 2 Norte 6 Noroeste 0 919.6 -- 71
2020-08-24 02:00:00 21.4 3 Nordeste 10 Este 0 920 -- 90
2020-08-24 01:00:00 21.8 4 Nordeste 13 Nordeste 0 920.4 -- 90
2020-08-24 00:00:00 22.6 4 Nordeste 16 Nordeste 0 920.7 -- 85
2020-08-23 23:00:00 23.2 9 Este 19 Nordeste 0 920.6 -- 83
2020-08-23 22:00:00 24.7 8 Este 23 Nordeste 0 920 -- 74
2020-08-23 21:00:00 26.1 12 Este 31 Este 0 919.5 -- 62
2020-08-23 20:00:00 27.2 16 Este 35 Este 0 919.1 -- 58
2020-08-23 19:00:00 28.9 15 Nordeste 36 Este 0 919.1 -- 53
2020-08-23 18:00:00 29.4 18 Nordeste 37 Nordeste 0 919.2 -- 50
2020-08-23 17:00:00 29.7 19 Este 39 Este 0 919.3 -- 50
2020-08-23 16:00:00 30.3 19 Nordeste 36 Este 0 919.9 -- 47
2020-08-23 15:00:00 30.3 17 Nordeste 35 Este 0 920.6 -- 47
2020-08-23 14:00:00 30.2 15 Nordeste 37 Nordeste 0 921.1 -- 44
2020-08-23 13:00:00 29.8 16 Nordeste 34 Nordeste 0 921.5 -- 42
2020-08-23 12:00:00 29.6 14 Nordeste 34 Nordeste 0 921.8 -- 38
2020-08-23 11:00:00 29.8 11 Nordeste 21 Este 0 921.6 -- 37
2020-08-23 10:00:00 29.6 4 Nordeste 13 Norte 0 921.3 -- 38
2020-08-23 09:00:00 27.5 6 Noroeste 12 Noroeste 0 921.5 -- 41
2020-08-23 08:00:00 23.4 4 Noroeste 13 Oeste 0 921.6 -- 44
2020-08-23 07:00:00 23.4 3 Norte 15 Oeste 0 921.4 -- 42
2020-08-23 06:00:00 23.3 7 Noroeste 16 Oeste 0 921.4 -- 41
2020-08-23 05:00:00 23.9 3 Noroeste 13 Oeste 0 921.6 -- 40
2020-08-23 04:00:00 22.3 0 Calma 10 Oeste 0 921.9 -- 42
2020-08-23 03:00:00 23.3 6 Oeste 10 Oeste 0 922.2 -- 41
2020-08-23 02:00:00 23.7 3 Noroeste 9 Oeste 0 922.4 -- 39
2020-08-23 01:00:00 24.1 6 Oeste 9 Oeste 0 922.4 -- 38
2020-08-23 00:00:00 24.8 0 Calma 9 Norte 0 922.8 -- 37
2020-08-22 23:00:00 25.8 2 Noroeste 11 Norte 0 922.9 -- 36
2020-08-22 22:00:00 26.6 0 Calma 14 Este 0 922.5 -- 37
2020-08-22 21:00:00 28.5 8 Este 20 Este 0 921.8 -- 34
2020-08-22 20:00:00 29.8 11 Nordeste 29 Nordeste 0 921.1 -- 31
2020-08-22 19:00:00 31.2 14 Nordeste 39 Este 0 920.8 -- 30
2020-08-22 18:00:00 32.6 15 Nordeste 38 Nordeste 0 920.7 -- 28
2020-08-22 17:00:00 32.7 17 Nordeste 36 Este 0 921.1 -- 28
2020-08-22 16:00:00 33.9 15 Nordeste 32 Este 0 921.7 -- 27
2020-08-22 15:00:00 34 13 Nordeste 31 Este 0 921.9 -- 26
2020-08-22 14:00:00 34.8 14 Nordeste 31 Este 0 922.2 -- 24
2020-08-22 13:00:00 35.8 7 Nordeste 17 Este 0 922.3 -- 22
2020-08-22 12:00:00 35.5 5 Norte 14 Noroeste 0 922.5 -- 24
2020-08-22 11:00:00 33.4 3 Norte 13 Noroeste 0 922.3 -- 27
2020-08-22 10:00:00 29.6 6 Noroeste 17 Noroeste 0 922.1 -- 29
2020-08-22 09:00:00 24.3 9 Noroeste 20 Noroeste 0 922 -- 31
2020-08-22 08:00:00 23.6 4 Noroeste 19 Oeste 0 921.7 -- 31
2020-08-22 07:00:00 23.3 4 Noroeste 19 Oeste 0 921.1 -- 30
2020-08-22 06:00:00 24.5 6 Noroeste 17 Norte 0 920.9 -- 29
2020-08-22 05:00:00 24.8 3 Noroeste 12 Oeste 0 920.4 -- 29
2020-08-22 04:00:00 23 9 Noroeste 13 Noroeste 0 920.7 -- 30
2020-08-22 03:00:00 25.9 3 Norte 19 Norte 0 921.1 -- 29
2020-08-22 02:00:00 26.2 6 Norte 21 Noroeste 0 921 -- 29
2020-08-22 01:00:00 26.5 9 Noroeste 19 Noroeste 0 920.9 -- 29
2020-08-22 00:00:00 27.7 5 Noroeste 16 Noroeste 0 920.8 -- 28